createdAt,value
2023-02-18T00:02:16.082Z,101439.88
2023-02-18T00:04:45.750Z,101443.06
2023-02-18T00:07:15.340Z,101427.19
2023-02-18T00:09:44.953Z,101440.50
2023-02-18T00:12:17.110Z,101411.00
2023-02-18T00:14:46.721Z,101433.31
2023-02-18T00:17:16.340Z,101446.16
2023-02-18T00:19:45.993Z,101434.19
2023-02-18T00:22:15.604Z,101431.94
2023-02-18T00:24:45.255Z,101434.44
2023-02-18T00:27:17.544Z,101416.69
2023-02-18T00:29:47.179Z,101441.03
2023-02-18T00:32:17.014Z,101433.22
2023-02-18T00:34:46.813Z,101361.34
2023-02-18T00:37:16.597Z,101440.78
2023-02-18T00:39:46.715Z,101385.13
2023-02-18T00:42:18.991Z,101424.91
2023-02-18T00:44:48.635Z,101434.91
2023-02-18T00:47:18.266Z,101423.28
2023-02-18T00:49:47.880Z,101440.72
2023-02-18T00:52:17.492Z,101449.47
2023-02-18T00:54:47.087Z,101450.34
2023-02-18T00:57:19.289Z,101408.09
2023-02-18T00:59:49.098Z,101422.53
2023-02-18T01:02:18.779Z,101419.56
2023-02-18T01:04:48.574Z,101448.66
2023-02-18T01:07:18.241Z,101437.69
2023-02-18T01:09:47.868Z,101443.75
2023-02-18T01:12:20.428Z,101452.50
2023-02-18T01:14:50.863Z,101450.84
2023-02-18T01:17:20.476Z,101432.31
2023-02-18T01:19:50.108Z,101437.16
2023-02-18T01:22:20.047Z,101355.22
2023-02-18T01:24:49.904Z,101373.38
2023-02-18T01:27:22.951Z,101378.53
2023-02-18T01:29:52.765Z,101440.34
2023-02-18T01:32:22.684Z,101427.63
2023-02-18T01:34:53.315Z,101427.53
2023-02-18T01:37:23.291Z,101436.06
2023-02-18T01:39:54.275Z,101439.41
2023-02-18T01:42:29.068Z,101358.72
2023-02-18T01:45:29.117Z,101432.38
2023-02-18T01:47:59.084Z,101364.53
2023-02-18T01:50:30.136Z,101419.31
2023-02-18T01:53:00.575Z,101359.06
2023-02-18T01:55:33.467Z,101389.97
2023-02-18T01:58:06.639Z,101418.41
2023-02-18T02:00:37.236Z,101398.50
2023-02-18T02:03:07.478Z,101380.28
2023-02-18T02:05:37.664Z,101383.59
2023-02-18T02:08:08.760Z,101361.00
2023-02-18T02:10:52.235Z,101358.22
2023-02-18T02:13:32.317Z,101371.44
2023-02-18T02:16:11.964Z,101368.44
2023-02-18T02:18:57.081Z,101376.00
2023-02-18T02:21:51.099Z,101358.66
2023-02-18T02:24:58.077Z,101373.53
2023-02-18T02:27:38.433Z,101370.34
2023-02-18T02:30:43.933Z,101372.16
2023-02-18T02:33:43.308Z,101336.38
2023-02-18T02:36:18.316Z,101361.69
2023-02-18T02:38:58.142Z,101339.66
2023-02-18T02:41:43.546Z,101325.38
2023-02-18T02:44:23.218Z,101344.28
2023-02-18T02:46:56.685Z,101338.88
2023-02-18T02:49:36.305Z,101335.56
2023-02-18T02:52:13.056Z,101325.56
2023-02-18T02:54:42.826Z,101330.31
2023-02-18T02:57:56.532Z,101322.13
2023-02-18T03:00:50.072Z,101305.44
2023-02-18T03:03:42.076Z,101327.19
2023-02-18T03:06:39.416Z,101331.34
2023-02-18T03:09:19.240Z,101297.56
2023-02-18T03:11:58.066Z,101306.25
2023-02-18T03:14:32.604Z,101315.16
2023-02-18T03:17:08.574Z,101311.06
2023-02-18T03:19:42.764Z,101279.44
2023-02-18T03:22:16.568Z,101253.66
2023-02-18T03:24:51.449Z,101284.34
2023-02-18T03:27:26.100Z,101269.44
2023-02-18T03:30:00.187Z,101271.06
2023-02-18T03:32:33.258Z,101271.88
2023-02-18T03:35:05.794Z,101262.41
2023-02-18T03:37:39.852Z,101262.50
2023-02-18T03:40:14.224Z,101267.88
2023-02-18T03:42:44.096Z,101257.03
2023-02-18T03:45:14.338Z,101240.59
2023-02-18T03:47:44.651Z,101249.09
2023-02-18T03:50:14.348Z,101206.75
2023-02-18T03:52:44.006Z,101246.63
2023-02-18T03:55:16.494Z,101230.34
2023-02-18T03:57:46.115Z,101227.72
2023-02-18T04:00:17.336Z,101239.97
2023-02-18T04:02:46.934Z,101228.91
2023-02-18T04:05:16.564Z,101231.47
2023-02-18T04:07:46.210Z,101229.03
2023-02-18T04:10:18.438Z,101226.78
2023-02-18T04:12:48.050Z,101220.13
2023-02-18T04:15:17.706Z,101222.94
2023-02-18T04:17:47.324Z,101218.34
2023-02-18T04:20:16.994Z,101220.41
2023-02-18T04:22:46.595Z,101218.66
2023-02-18T04:25:18.861Z,101196.38
2023-02-18T04:27:48.489Z,101204.03
2023-02-18T04:30:19.073Z,101215.47
2023-02-18T04:32:48.753Z,101222.38
2023-02-18T04:35:18.844Z,101214.00
2023-02-18T04:37:48.514Z,101171.00
2023-02-18T04:40:20.900Z,101166.00
2023-02-18T04:42:50.557Z,101201.56
2023-02-18T04:45:20.781Z,101131.38
2023-02-18T04:47:50.582Z,101152.25
2023-02-18T04:50:20.677Z,101112.34
2023-02-18T04:52:50.739Z,101126.59
2023-02-18T04:55:23.528Z,101176.00
2023-02-18T04:57:53.349Z,101178.72
2023-02-18T05:00:23.668Z,101178.25
2023-02-18T05:02:53.487Z,101155.13
2023-02-18T05:05:23.627Z,101126.41
2023-02-18T05:07:53.372Z,101135.41
2023-02-18T05:10:25.793Z,101107.56
2023-02-18T05:12:55.526Z,101153.44
2023-02-18T05:15:25.269Z,101119.06
2023-02-18T05:17:55.276Z,101054.44
2023-02-18T05:20:25.151Z,101087.34
2023-02-18T05:22:54.819Z,101136.47
2023-02-18T05:25:27.091Z,101136.53
2023-02-18T05:27:56.744Z,101122.81
2023-02-18T05:30:26.602Z,101102.28
2023-02-18T05:32:56.268Z,101116.91
2023-02-18T05:35:25.858Z,101074.13
2023-02-18T05:37:55.514Z,101065.63
2023-02-18T05:40:27.691Z,101088.28
2023-02-18T05:42:57.466Z,101059.66
2023-02-18T05:45:27.189Z,101082.50
2023-02-18T05:47:56.823Z,101088.72
2023-02-18T05:50:26.634Z,101091.28
2023-02-18T05:52:56.296Z,101076.97
2023-02-18T05:55:28.673Z,101063.25
2023-02-18T05:57:58.391Z,101031.34
2023-02-18T06:00:30.006Z,101057.44
2023-02-18T06:02:59.643Z,101042.72
2023-02-18T06:05:29.440Z,101046.31
2023-02-18T06:07:59.096Z,101034.03
2023-02-18T06:10:31.338Z,101024.53
2023-02-18T06:13:02.503Z,101032.34
2023-02-18T06:15:32.192Z,100989.28
2023-02-18T06:18:02.045Z,100948.97
2023-02-18T06:20:31.817Z,100993.06
2023-02-18T06:23:01.515Z,101016.25
2023-02-18T06:25:33.900Z,100940.50
2023-02-18T06:28:03.594Z,100977.22
2023-02-18T06:30:33.282Z,100984.31
2023-02-18T06:33:04.303Z,100972.25
2023-02-18T06:35:35.135Z,100934.94
2023-02-18T06:38:05.018Z,100982.47
2023-02-18T06:40:37.238Z,100981.88
2023-02-18T06:43:06.843Z,100972.38
2023-02-18T06:45:36.492Z,100977.59
2023-02-18T06:48:06.246Z,100973.50
2023-02-18T06:50:35.836Z,100962.94
2023-02-18T06:53:05.602Z,100942.50
2023-02-18T06:55:37.817Z,100935.91
2023-02-18T06:58:08.225Z,100888.59
2023-02-18T07:00:37.981Z,100932.81
2023-02-18T07:03:08.338Z,100928.75
2023-02-18T07:05:38.229Z,100941.78
2023-02-18T07:08:08.202Z,100936.69
2023-02-18T07:10:40.688Z,100918.91
2023-02-18T07:13:10.486Z,100913.06
2023-02-18T07:15:40.278Z,100915.78
2023-02-18T07:18:09.889Z,100882.13
2023-02-18T07:20:39.603Z,100922.75
2023-02-18T07:23:09.411Z,100916.88
2023-02-18T07:25:41.751Z,100900.88
2023-02-18T07:28:11.428Z,100903.38
2023-02-18T07:30:41.162Z,100863.75
2023-02-18T07:33:10.913Z,100897.81
2023-02-18T07:35:40.519Z,100895.06
2023-02-18T07:38:10.160Z,100894.19
2023-02-18T07:40:42.324Z,100880.69
2023-02-18T07:43:11.915Z,100886.44
2023-02-18T07:45:41.799Z,100863.28
2023-02-18T07:48:11.490Z,100872.00
2023-02-18T07:50:42.617Z,100857.47
2023-02-18T07:53:13.901Z,100876.31
2023-02-18T07:55:52.304Z,100867.94
2023-02-18T07:58:24.920Z,100861.97
2023-02-18T08:00:54.948Z,100860.34
2023-02-18T08:03:26.110Z,100875.03
2023-02-18T08:05:56.651Z,100828.00
2023-02-18T08:08:53.268Z,100598.47
2023-02-18T08:12:14.053Z,100722.81
2023-02-18T08:15:13.508Z,100698.47
2023-02-18T08:17:58.420Z,100874.25
2023-02-18T08:20:56.783Z,100739.63
2023-02-18T08:23:34.629Z,100884.72
2023-02-18T08:26:17.030Z,100775.31
2023-02-18T08:29:03.305Z,100863.34
2023-02-18T08:31:44.811Z,100744.38
2023-02-18T08:34:27.074Z,100861.72
2023-02-18T08:37:01.554Z,100874.72
2023-02-18T08:39:49.052Z,100709.41
2023-02-18T08:42:33.397Z,100703.47
2023-02-18T08:45:31.251Z,100746.63
2023-02-18T08:48:16.946Z,100676.19
2023-02-18T08:51:08.890Z,100832.22
2023-02-18T08:53:51.103Z,100677.22
2023-02-18T08:56:28.490Z,100752.06
2023-02-18T08:59:13.104Z,100655.53
2023-02-18T09:02:14.789Z,100850.31
2023-02-18T09:04:45.277Z,100827.28
2023-02-18T09:07:30.482Z,100690.41
2023-02-18T09:10:32.822Z,100539.59
2023-02-18T09:19:37.034Z,100682.91
2023-02-18T09:22:30.517Z,100845.34
2023-02-18T09:41:52.099Z,100826.88
2023-02-18T09:58:24.057Z,100612.66
2023-02-18T10:01:39.620Z,100784.47
2023-02-18T10:04:19.322Z,100753.09
2023-02-18T10:06:53.590Z,100646.50
2023-02-18T10:09:26.847Z,100776.81
2023-02-18T10:12:00.088Z,100737.13
2023-02-18T10:14:32.687Z,100796.28
2023-02-18T10:17:03.011Z,100776.50
2023-02-18T10:19:36.233Z,100784.13
2023-02-18T10:22:09.622Z,100800.66
2023-02-18T10:24:43.137Z,100782.69
2023-02-18T10:27:16.401Z,100803.06
2023-02-18T10:29:48.590Z,100782.66
2023-02-18T10:32:25.012Z,100796.19
2023-02-18T10:34:59.362Z,100750.53
2023-02-18T10:37:50.641Z,100794.56
2023-02-18T10:40:27.748Z,100781.66
2023-02-18T10:43:06.802Z,100756.69
2023-02-18T10:45:47.207Z,100778.19
2023-02-18T10:48:33.619Z,100763.56
2023-02-18T10:51:11.831Z,100789.41
2023-02-18T10:53:45.050Z,100773.81
2023-02-18T10:56:36.010Z,100802.97
2023-02-18T10:59:13.915Z,100796.28
2023-02-18T11:01:46.895Z,100798.78
2023-02-18T11:04:19.413Z,100794.56
2023-02-18T11:06:50.931Z,100798.00
2023-02-18T11:09:32.767Z,100776.56
2023-02-18T11:12:08.782Z,100798.00
2023-02-18T11:14:42.057Z,100799.00
2023-02-18T11:17:29.268Z,100791.53
2023-02-18T11:20:01.763Z,100768.28
2023-02-18T11:22:33.466Z,100796.53
2023-02-18T11:25:05.433Z,100800.66
2023-02-18T11:27:44.922Z,100767.84
2023-02-18T11:30:22.904Z,100799.56
2023-02-18T11:32:59.345Z,100809.78
2023-02-18T11:35:32.950Z,100793.44
2023-02-18T11:38:04.713Z,100798.31
2023-02-18T11:40:36.430Z,100787.94
2023-02-18T11:43:30.522Z,100760.38
2023-02-18T11:46:14.878Z,100775.03
2023-02-18T11:48:50.005Z,100693.25
2023-02-18T11:51:22.754Z,100801.53
2023-02-18T11:54:02.572Z,100747.13
2023-02-18T11:56:34.993Z,100802.38
2023-02-18T11:59:07.278Z,100727.66
2023-02-18T12:01:46.473Z,100793.00
2023-02-18T12:04:23.225Z,100802.47
2023-02-18T12:06:58.186Z,100768.81
2023-02-18T12:09:32.547Z,100805.94
2023-02-18T12:12:05.517Z,100801.69
2023-02-18T12:14:35.977Z,100804.06
2023-02-18T12:17:26.831Z,100812.59
2023-02-18T12:20:29.731Z,100833.00
2023-02-18T12:23:08.068Z,100756.41
2023-02-18T12:25:46.778Z,100777.94
2023-02-18T12:28:29.201Z,100801.16
2023-02-18T12:31:25.210Z,100765.69
2023-02-18T12:34:07.034Z,100830.44
2023-02-18T12:37:00.089Z,100774.75
2023-02-18T12:39:44.740Z,100786.81
2023-02-18T13:21:41.294Z,100539.81
2023-02-18T13:28:22.002Z,100842.13
2023-02-18T13:31:31.263Z,100578.63
2023-02-18T14:02:54.499Z,100566.34
2023-02-18T14:30:28.541Z,100822.19
2023-02-18T14:33:02.503Z,100892.94
2023-02-18T14:35:37.720Z,100887.06
2023-02-18T14:38:23.352Z,100867.13
2023-02-18T14:41:01.568Z,100897.16
2023-02-18T14:43:54.469Z,100880.31
2023-02-18T14:46:38.444Z,100887.94
2023-02-18T14:49:56.421Z,100839.97
2023-02-18T15:01:04.593Z,100610.13
2023-02-18T15:05:10.836Z,100691.94
2023-02-18T15:08:41.397Z,100771.19
2023-02-18T15:13:01.212Z,100771.25
2023-02-18T15:23:16.485Z,100771.31
2023-02-18T15:45:50.110Z,100928.72
2023-02-18T15:48:33.610Z,100909.94
2023-02-18T15:51:16.916Z,100903.88
2023-02-18T15:53:57.182Z,100947.25
2023-02-18T15:56:33.023Z,100760.09
2023-02-18T15:59:22.489Z,100824.47
2023-02-18T16:02:29.866Z,100852.19
2023-02-18T16:05:11.343Z,100936.56
2023-02-18T17:58:15.268Z,101048.31
2023-02-18T19:36:53.032Z,101030.97
2023-02-18T19:39:22.646Z,101102.00
2023-02-18T19:41:52.319Z,101050.00
2023-02-18T19:44:21.931Z,101083.88
2023-02-18T19:46:51.761Z,101101.13
2023-02-18T19:49:21.382Z,101095.03
2023-02-18T19:51:53.624Z,101046.50
2023-02-18T19:54:23.289Z,101096.53
2023-02-18T19:56:53.197Z,101050.81
2023-02-18T19:59:22.881Z,101100.25
2023-02-18T20:01:52.618Z,101089.09
2023-02-18T20:04:22.351Z,101014.81
2023-02-18T21:11:32.581Z,101087.88
2023-02-18T22:21:54.256Z,101033.28
2023-02-18T22:38:25.676Z,100726.81
